sensor_id;sensor_type;location;lat;lon;timestamp;temperature;humidity
8214;DHT22;4148;47.974;7.824;2023-07-20T00:01:06;21.70;99.90
8214;DHT22;4148;47.974;7.824;2023-07-20T00:03:34;21.70;99.90
8214;DHT22;4148;47.974;7.824;2023-07-20T00:06:02;21.60;99.90
8214;DHT22;4148;47.974;7.824;2023-07-20T00:08:32;21.60;99.90
8214;DHT22;4148;47.974;7.824;2023-07-20T00:11:00;21.50;99.90
8214;DHT22;4148;47.974;7.824;2023-07-20T00:13:28;21.50;99.90
8214;DHT22;4148;47.974;7.824;2023-07-20T00:15:55;21.40;99.90
8214;DHT22;4148;47.974;7.824;2023-07-20T00:18:23;21.50;99.90
8214;DHT22;4148;47.974;7.824;2023-07-20T00:20:51;21.50;99.90
8214;DHT22;4148;47.974;7.824;2023-07-20T00:23:19;21.40;99.90
8214;DHT22;4148;47.974;7.824;2023-07-20T00:25:51;21.20;99.90
8214;DHT22;4148;47.974;7.824;2023-07-20T00:28:18;21.20;99.90
8214;DHT22;4148;47.974;7.824;2023-07-20T00:30:46;21.10;99.90
8214;DHT22;4148;47.974;7.824;2023-07-20T00:33:17;21.10;99.90
8214;DHT22;4148;47.974;7.824;2023-07-20T00:35:45;21.10;99.90
8214;DHT22;4148;47.974;7.824;2023-07-20T00:38:13;21.10;99.90
8214;DHT22;4148;47.974;7.824;2023-07-20T00:40:41;21.20;99.90
8214;DHT22;4148;47.974;7.824;2023-07-20T00:43:10;21.20;99.90
8214;DHT22;4148;47.974;7.824;2023-07-20T00:45:38;21.20;99.90
8214;DHT22;4148;47.974;7.824;2023-07-20T00:48:06;21.10;99.90
8214;DHT22;4148;47.974;7.824;2023-07-20T00:50:35;21.00;99.90
8214;DHT22;4148;47.974;7.824;2023-07-20T00:53:04;20.90;99.90
8214;DHT22;4148;47.974;7.824;2023-07-20T00:55:33;20.90;99.90
8214;DHT22;4148;47.974;7.824;2023-07-20T00:58:01;20.90;99.90
8214;DHT22;4148;47.974;7.824;2023-07-20T01:00:30;20.80;99.90
8214;DHT22;4148;47.974;7.824;2023-07-20T01:02:58;20.80;99.90
8214;DHT22;4148;47.974;7.824;2023-07-20T01:05:34;20.70;99.90
8214;DHT22;4148;47.974;7.824;2023-07-20T01:08:09;20.70;99.90
8214;DHT22;4148;47.974;7.824;2023-07-20T01:10:40;20.70;99.90
8214;DHT22;4148;47.974;7.824;2023-07-20T01:13:10;20.70;99.90
8214;DHT22;4148;47.974;7.824;2023-07-20T01:15:41;20.70;99.90
8214;DHT22;4148;47.974;7.824;2023-07-20T01:18:09;20.70;99.90
8214;DHT22;4148;47.974;7.824;2023-07-20T01:20:37;20.70;99.90
8214;DHT22;4148;47.974;7.824;2023-07-20T01:26:32;20.60;99.90
8214;DHT22;4148;47.974;7.824;2023-07-20T01:29:16;20.60;99.90
8214;DHT22;4148;47.974;7.824;2023-07-20T01:31:50;20.60;99.90
8214;DHT22;4148;47.974;7.824;2023-07-20T01:34:19;20.50;99.90
8214;DHT22;4148;47.974;7.824;2023-07-20T01:36:50;20.40;99.90
8214;DHT22;4148;47.974;7.824;2023-07-20T01:39:21;20.30;1.00
8214;DHT22;4148;47.974;7.824;2023-07-20T01:41:49;20.30;99.90
8214;DHT22;4148;47.974;7.824;2023-07-20T01:44:17;20.30;1.00
8214;DHT22;4148;47.974;7.824;2023-07-20T01:46:44;20.30;1.00
8214;DHT22;4148;47.974;7.824;2023-07-20T01:49:14;20.30;1.00
8214;DHT22;4148;47.974;7.824;2023-07-20T01:51:42;20.30;1.00
8214;DHT22;4148;47.974;7.824;2023-07-20T01:54:10;20.20;1.00
8214;DHT22;4148;47.974;7.824;2023-07-20T01:56:38;20.20;1.00
8214;DHT22;4148;47.974;7.824;2023-07-20T01:59:05;20.30;1.00
8214;DHT22;4148;47.974;7.824;2023-07-20T02:01:33;20.20;1.00
8214;DHT22;4148;47.974;7.824;2023-07-20T02:04:01;20.20;99.90
8214;DHT22;4148;47.974;7.824;2023-07-20T02:06:31;20.20;99.90
8214;DHT22;4148;47.974;7.824;2023-07-20T02:08:59;20.20;99.90
8214;DHT22;4148;47.974;7.824;2023-07-20T02:11:26;20.30;99.90
8214;DHT22;4148;47.974;7.824;2023-07-20T02:13:54;20.30;99.90
8214;DHT22;4148;47.974;7.824;2023-07-20T02:16:22;20.30;99.90
8214;DHT22;4148;47.974;7.824;2023-07-20T02:18:51;20.20;99.90
8214;DHT22;4148;47.974;7.824;2023-07-20T02:21:18;20.10;99.90
8214;DHT22;4148;47.974;7.824;2023-07-20T02:23:48;20.10;99.90
8214;DHT22;4148;47.974;7.824;2023-07-20T02:26:15;20.10;99.90
8214;DHT22;4148;47.974;7.824;2023-07-20T02:28:43;20.10;99.90
8214;DHT22;4148;47.974;7.824;2023-07-20T02:31:11;20.00;99.90
8214;DHT22;4148;47.974;7.824;2023-07-20T02:33:39;20.00;99.90
8214;DHT22;4148;47.974;7.824;2023-07-20T02:36:07;19.90;99.90
8214;DHT22;4148;47.974;7.824;2023-07-20T02:38:35;19.80;99.90
8214;DHT22;4148;47.974;7.824;2023-07-20T02:41:04;19.80;99.90
8214;DHT22;4148;47.974;7.824;2023-07-20T02:43:32;19.90;99.90
8214;DHT22;4148;47.974;7.824;2023-07-20T02:46:00;19.80;99.90
8214;DHT22;4148;47.974;7.824;2023-07-20T02:48:27;19.80;99.90
8214;DHT22;4148;47.974;7.824;2023-07-20T02:50:56;19.70;99.90
8214;DHT22;4148;47.974;7.824;2023-07-20T02:53:24;19.70;99.90
8214;DHT22;4148;47.974;7.824;2023-07-20T02:55:51;19.60;99.90
8214;DHT22;4148;47.974;7.824;2023-07-20T02:58:21;19.60;99.90
8214;DHT22;4148;47.974;7.824;2023-07-20T03:00:49;19.60;99.90
8214;DHT22;4148;47.974;7.824;2023-07-20T03:03:17;19.60;99.90
8214;DHT22;4148;47.974;7.824;2023-07-20T03:05:45;19.60;99.90
8214;DHT22;4148;47.974;7.824;2023-07-20T03:08:13;19.60;99.90
8214;DHT22;4148;47.974;7.824;2023-07-20T03:10:41;19.40;99.90
8214;DHT22;4148;47.974;7.824;2023-07-20T03:13:09;19.30;99.90
8214;DHT22;4148;47.974;7.824;2023-07-20T03:15:38;19.30;99.90
8214;DHT22;4148;47.974;7.824;2023-07-20T03:18:06;19.20;99.90
8214;DHT22;4148;47.974;7.824;2023-07-20T03:20:35;19.10;99.90
8214;DHT22;4148;47.974;7.824;2023-07-20T03:23:03;19.00;99.90
8214;DHT22;4148;47.974;7.824;2023-07-20T03:25:31;19.10;99.90
8214;DHT22;4148;47.974;7.824;2023-07-20T03:28:00;19.00;99.90
8214;DHT22;4148;47.974;7.824;2023-07-20T03:30:28;18.90;99.90
8214;DHT22;4148;47.974;7.824;2023-07-20T03:32:57;18.90;99.90
8214;DHT22;4148;47.974;7.824;2023-07-20T03:35:25;18.90;99.90
8214;DHT22;4148;47.974;7.824;2023-07-20T03:37:53;18.90;99.90
8214;DHT22;4148;47.974;7.824;2023-07-20T03:40:20;18.90;99.90
8214;DHT22;4148;47.974;7.824;2023-07-20T03:42:49;18.90;99.90
8214;DHT22;4148;47.974;7.824;2023-07-20T03:45:17;19.00;99.90
8214;DHT22;4148;47.974;7.824;2023-07-20T03:47:45;18.90;99.90
8214;DHT22;4148;47.974;7.824;2023-07-20T03:50:16;19.00;99.90
8214;DHT22;4148;47.974;7.824;2023-07-20T03:52:44;18.90;99.90
8214;DHT22;4148;47.974;7.824;2023-07-20T03:55:12;18.90;99.90
8214;DHT22;4148;47.974;7.824;2023-07-20T03:57:40;18.90;99.90
8214;DHT22;4148;47.974;7.824;2023-07-20T04:00:09;18.80;99.90
8214;DHT22;4148;47.974;7.824;2023-07-20T04:02:37;18.70;99.90
8214;DHT22;4148;47.974;7.824;2023-07-20T04:05:05;18.70;99.90
8214;DHT22;4148;47.974;7.824;2023-07-20T04:07:35;18.70;99.90
8214;DHT22;4148;47.974;7.824;2023-07-20T04:10:03;18.80;99.90
8214;DHT22;4148;47.974;7.824;2023-07-20T04:12:31;18.80;99.90
8214;DHT22;4148;47.974;7.824;2023-07-20T04:14:59;18.70;99.90
8214;DHT22;4148;47.974;7.824;2023-07-20T04:17:27;18.70;99.90
8214;DHT22;4148;47.974;7.824;2023-07-20T04:19:55;18.70;99.90
8214;DHT22;4148;47.974;7.824;2023-07-20T04:22:23;18.70;99.90
8214;DHT22;4148;47.974;7.824;2023-07-20T04:24:52;18.70;99.90
8214;DHT22;4148;47.974;7.824;2023-07-20T04:27:20;18.60;99.90
8214;DHT22;4148;47.974;7.824;2023-07-20T04:29:48;18.50;99.90
8214;DHT22;4148;47.974;7.824;2023-07-20T04:32:16;18.50;99.90
8214;DHT22;4148;47.974;7.824;2023-07-20T04:34:44;18.50;99.90
8214;DHT22;4148;47.974;7.824;2023-07-20T04:37:12;18.60;99.90
8214;DHT22;4148;47.974;7.824;2023-07-20T04:39:40;18.50;99.90
8214;DHT22;4148;47.974;7.824;2023-07-20T04:42:09;18.50;99.90
8214;DHT22;4148;47.974;7.824;2023-07-20T04:44:37;18.40;1.00
8214;DHT22;4148;47.974;7.824;2023-07-20T04:47:05;18.40;1.00
8214;DHT22;4148;47.974;7.824;2023-07-20T04:49:33;18.40;99.90
8214;DHT22;4148;47.974;7.824;2023-07-20T04:52:02;18.40;99.90
8214;DHT22;4148;47.974;7.824;2023-07-20T04:54:30;18.50;99.90
8214;DHT22;4148;47.974;7.824;2023-07-20T04:56:58;18.50;1.00
8214;DHT22;4148;47.974;7.824;2023-07-20T04:59:27;18.50;1.00
8214;DHT22;4148;47.974;7.824;2023-07-20T05:01:55;18.40;99.90
8214;DHT22;4148;47.974;7.824;2023-07-20T05:04:23;18.40;1.00
8214;DHT22;4148;47.974;7.824;2023-07-20T05:07:04;18.40;1.00
8214;DHT22;4148;47.974;7.824;2023-07-20T05:09:32;18.30;99.90
8214;DHT22;4148;47.974;7.824;2023-07-20T05:12:00;18.30;99.90
8214;DHT22;4148;47.974;7.824;2023-07-20T05:14:29;18.30;99.90
8214;DHT22;4148;47.974;7.824;2023-07-20T05:16:57;18.20;1.00
8214;DHT22;4148;47.974;7.824;2023-07-20T05:19:25;18.10;99.90
8214;DHT22;4148;47.974;7.824;2023-07-20T05:21:53;18.20;99.90
8214;DHT22;4148;47.974;7.824;2023-07-20T05:24:21;18.20;1.00
8214;DHT22;4148;47.974;7.824;2023-07-20T05:26:49;18.30;1.00
8214;DHT22;4148;47.974;7.824;2023-07-20T05:29:17;18.40;99.90
8214;DHT22;4148;47.974;7.824;2023-07-20T05:31:46;18.50;99.90
8214;DHT22;4148;47.974;7.824;2023-07-20T05:34:14;18.40;1.00
8214;DHT22;4148;47.974;7.824;2023-07-20T05:36:42;18.40;1.00
8214;DHT22;4148;47.974;7.824;2023-07-20T05:39:09;18.50;1.00
8214;DHT22;4148;47.974;7.824;2023-07-20T05:41:37;18.50;1.00
8214;DHT22;4148;47.974;7.824;2023-07-20T05:44:05;18.40;99.90
8214;DHT22;4148;47.974;7.824;2023-07-20T05:46:33;18.40;99.90
8214;DHT22;4148;47.974;7.824;2023-07-20T05:49:18;18.50;99.90
8214;DHT22;4148;47.974;7.824;2023-07-20T05:51:46;18.70;1.00
8214;DHT22;4148;47.974;7.824;2023-07-20T05:54:14;18.80;99.90
8214;DHT22;4148;47.974;7.824;2023-07-20T05:56:42;18.90;12.40
8214;DHT22;4148;47.974;7.824;2023-07-20T05:59:10;19.00;86.00
8214;DHT22;4148;47.974;7.824;2023-07-20T06:01:38;19.00;1.00
8214;DHT22;4148;47.974;7.824;2023-07-20T06:04:06;19.00;99.90
8214;DHT22;4148;47.974;7.824;2023-07-20T06:06:35;19.10;1.00
8214;DHT22;4148;47.974;7.824;2023-07-20T06:09:03;19.20;1.00
8214;DHT22;4148;47.974;7.824;2023-07-20T06:11:34;19.20;1.00
8214;DHT22;4148;47.974;7.824;2023-07-20T06:14:02;19.30;1.00
8214;DHT22;4148;47.974;7.824;2023-07-20T06:16:29;19.30;1.00
8214;DHT22;4148;47.974;7.824;2023-07-20T06:18:59;19.30;1.00
8214;DHT22;4148;47.974;7.824;2023-07-20T06:21:27;19.40;1.00
8214;DHT22;4148;47.974;7.824;2023-07-20T06:23:56;19.50;1.00
8214;DHT22;4148;47.974;7.824;2023-07-20T06:26:25;19.40;1.00
8214;DHT22;4148;47.974;7.824;2023-07-20T06:28:53;19.50;1.00
8214;DHT22;4148;47.974;7.824;2023-07-20T06:31:21;19.60;99.40
8214;DHT22;4148;47.974;7.824;2023-07-20T06:33:49;19.70;1.00
8214;DHT22;4148;47.974;7.824;2023-07-20T06:36:18;19.70;1.00
8214;DHT22;4148;47.974;7.824;2023-07-20T06:38:46;19.80;1.00
8214;DHT22;4148;47.974;7.824;2023-07-20T06:41:18;19.90;1.00
8214;DHT22;4148;47.974;7.824;2023-07-20T06:43:48;20.00;1.00
8214;DHT22;4148;47.974;7.824;2023-07-20T06:46:16;20.20;1.00
8214;DHT22;4148;47.974;7.824;2023-07-20T06:48:44;20.30;1.00
8214;DHT22;4148;47.974;7.824;2023-07-20T06:51:15;20.40;1.00
8214;DHT22;4148;47.974;7.824;2023-07-20T06:53:43;20.50;99.90
8214;DHT22;4148;47.974;7.824;2023-07-20T06:56:11;20.60;99.90
8214;DHT22;4148;47.974;7.824;2023-07-20T06:58:40;20.70;99.90
8214;DHT22;4148;47.974;7.824;2023-07-20T07:01:08;20.80;99.90
8214;DHT22;4148;47.974;7.824;2023-07-20T07:03:36;21.00;99.90
8214;DHT22;4148;47.974;7.824;2023-07-20T07:06:04;21.00;99.90
8214;DHT22;4148;47.974;7.824;2023-07-20T07:08:32;21.10;99.90
8214;DHT22;4148;47.974;7.824;2023-07-20T07:11:00;21.10;99.90
8214;DHT22;4148;47.974;7.824;2023-07-20T07:13:28;21.10;99.90
8214;DHT22;4148;47.974;7.824;2023-07-20T07:15:58;21.20;99.90
8214;DHT22;4148;47.974;7.824;2023-07-20T07:18:26;21.50;99.90
8214;DHT22;4148;47.974;7.824;2023-07-20T07:20:54;21.80;99.90
8214;DHT22;4148;47.974;7.824;2023-07-20T07:23:22;22.10;99.90
8214;DHT22;4148;47.974;7.824;2023-07-20T07:25:50;22.30;99.90
8214;DHT22;4148;47.974;7.824;2023-07-20T07:28:18;22.30;99.90
8214;DHT22;4148;47.974;7.824;2023-07-20T07:30:46;22.30;99.90
8214;DHT22;4148;47.974;7.824;2023-07-20T07:33:15;22.50;99.90
8214;DHT22;4148;47.974;7.824;2023-07-20T07:35:43;22.60;99.90
8214;DHT22;4148;47.974;7.824;2023-07-20T07:38:11;22.60;99.90
8214;DHT22;4148;47.974;7.824;2023-07-20T07:40:59;22.60;99.90
8214;DHT22;4148;47.974;7.824;2023-07-20T07:43:27;22.70;99.90
8214;DHT22;4148;47.974;7.824;2023-07-20T07:45:55;22.70;99.90
8214;DHT22;4148;47.974;7.824;2023-07-20T07:48:25;22.70;99.90
8214;DHT22;4148;47.974;7.824;2023-07-20T07:50:54;22.80;99.90
8214;DHT22;4148;47.974;7.824;2023-07-20T07:53:22;22.90;99.90
8214;DHT22;4148;47.974;7.824;2023-07-20T07:55:52;23.00;99.90
8214;DHT22;4148;47.974;7.824;2023-07-20T07:58:20;23.10;99.90
8214;DHT22;4148;47.974;7.824;2023-07-20T08:00:48;23.20;99.90
8214;DHT22;4148;47.974;7.824;2023-07-20T08:03:16;23.30;99.90
8214;DHT22;4148;47.974;7.824;2023-07-20T08:05:47;23.40;99.90
8214;DHT22;4148;47.974;7.824;2023-07-20T08:08:14;23.40;99.90
8214;DHT22;4148;47.974;7.824;2023-07-20T08:10:42;23.40;99.90
8214;DHT22;4148;47.974;7.824;2023-07-20T08:13:10;23.50;99.90
8214;DHT22;4148;47.974;7.824;2023-07-20T08:15:38;23.50;99.90
8214;DHT22;4148;47.974;7.824;2023-07-20T08:18:06;23.40;99.90
8214;DHT22;4148;47.974;7.824;2023-07-20T08:20:35;23.30;99.90
8214;DHT22;4148;47.974;7.824;2023-07-20T08:23:05;23.30;99.90
8214;DHT22;4148;47.974;7.824;2023-07-20T08:25:33;23.40;99.90
8214;DHT22;4148;47.974;7.824;2023-07-20T08:28:04;23.60;99.90
8214;DHT22;4148;47.974;7.824;2023-07-20T08:30:40;23.80;99.90
8214;DHT22;4148;47.974;7.824;2023-07-20T08:33:09;23.90;99.90
8214;DHT22;4148;47.974;7.824;2023-07-20T08:35:38;23.90;99.90
8214;DHT22;4148;47.974;7.824;2023-07-20T08:38:07;24.20;99.90
8214;DHT22;4148;47.974;7.824;2023-07-20T08:40:40;24.40;99.90
8214;DHT22;4148;47.974;7.824;2023-07-20T08:43:09;24.30;99.90
8214;DHT22;4148;47.974;7.824;2023-07-20T08:45:39;24.30;99.90
8214;DHT22;4148;47.974;7.824;2023-07-20T08:48:08;24.30;99.90
8214;DHT22;4148;47.974;7.824;2023-07-20T08:50:36;24.20;99.90
8214;DHT22;4148;47.974;7.824;2023-07-20T08:53:04;24.20;99.90
8214;DHT22;4148;47.974;7.824;2023-07-20T08:55:35;24.30;99.90
8214;DHT22;4148;47.974;7.824;2023-07-20T08:58:05;24.40;99.90
8214;DHT22;4148;47.974;7.824;2023-07-20T09:00:36;24.40;99.90
8214;DHT22;4148;47.974;7.824;2023-07-20T09:03:06;24.10;99.90
8214;DHT22;4148;47.974;7.824;2023-07-20T09:05:35;24.10;99.90
8214;DHT22;4148;47.974;7.824;2023-07-20T09:08:03;24.10;99.90
8214;DHT22;4148;47.974;7.824;2023-07-20T09:10:31;24.10;99.90
8214;DHT22;4148;47.974;7.824;2023-07-20T09:13:01;24.50;99.90
8214;DHT22;4148;47.974;7.824;2023-07-20T09:15:29;24.90;99.90
8214;DHT22;4148;47.974;7.824;2023-07-20T09:18:01;25.60;99.90
8214;DHT22;4148;47.974;7.824;2023-07-20T09:20:32;26.10;99.90
8214;DHT22;4148;47.974;7.824;2023-07-20T09:23:04;26.50;99.90
8214;DHT22;4148;47.974;7.824;2023-07-20T09:25:33;26.80;99.90
8214;DHT22;4148;47.974;7.824;2023-07-20T09:28:04;26.90;99.90
8214;DHT22;4148;47.974;7.824;2023-07-20T09:30:32;27.10;99.90
8214;DHT22;4148;47.974;7.824;2023-07-20T09:33:01;27.00;99.90
8214;DHT22;4148;47.974;7.824;2023-07-20T09:35:29;27.00;99.90
8214;DHT22;4148;47.974;7.824;2023-07-20T09:38:08;27.10;99.90
8214;DHT22;4148;47.974;7.824;2023-07-20T09:40:40;27.40;99.90
8214;DHT22;4148;47.974;7.824;2023-07-20T09:43:12;27.70;99.90
8214;DHT22;4148;47.974;7.824;2023-07-20T09:45:43;27.90;99.90
8214;DHT22;4148;47.974;7.824;2023-07-20T09:48:15;27.70;99.90
8214;DHT22;4148;47.974;7.824;2023-07-20T09:50:49;27.70;99.90
8214;DHT22;4148;47.974;7.824;2023-07-20T09:53:18;27.60;99.90
8214;DHT22;4148;47.974;7.824;2023-07-20T09:55:47;27.60;99.90
8214;DHT22;4148;47.974;7.824;2023-07-20T09:58:17;27.60;99.90
8214;DHT22;4148;47.974;7.824;2023-07-20T10:00:46;27.70;99.90
8214;DHT22;4148;47.974;7.824;2023-07-20T10:03:20;27.80;99.90
8214;DHT22;4148;47.974;7.824;2023-07-20T10:05:52;27.90;99.90
8214;DHT22;4148;47.974;7.824;2023-07-20T10:08:24;28.30;99.90
8214;DHT22;4148;47.974;7.824;2023-07-20T10:10:57;28.40;99.90
8214;DHT22;4148;47.974;7.824;2023-07-20T10:13:29;28.80;99.90
8214;DHT22;4148;47.974;7.824;2023-07-20T10:16:01;29.10;99.90
8214;DHT22;4148;47.974;7.824;2023-07-20T10:18:34;29.40;99.90
8214;DHT22;4148;47.974;7.824;2023-07-20T10:21:06;29.70;99.90
8214;DHT22;4148;47.974;7.824;2023-07-20T10:23:39;29.60;99.90
8214;DHT22;4148;47.974;7.824;2023-07-20T10:26:07;29.60;99.90
8214;DHT22;4148;47.974;7.824;2023-07-20T10:28:37;29.40;99.90
8214;DHT22;4148;47.974;7.824;2023-07-20T10:31:07;28.70;99.90
8214;DHT22;4148;47.974;7.824;2023-07-20T10:33:36;27.80;99.90
8214;DHT22;4148;47.974;7.824;2023-07-20T10:36:06;27.40;99.90
8214;DHT22;4148;47.974;7.824;2023-07-20T10:38:52;26.70;99.90
8214;DHT22;4148;47.974;7.824;2023-07-20T10:41:22;26.30;99.90
8214;DHT22;4148;47.974;7.824;2023-07-20T10:43:58;26.70;99.90
8214;DHT22;4148;47.974;7.824;2023-07-20T10:46:42;27.30;99.90
8214;DHT22;4148;47.974;7.824;2023-07-20T10:49:12;27.70;99.90
8214;DHT22;4148;47.974;7.824;2023-07-20T10:51:42;28.20;99.90
8214;DHT22;4148;47.974;7.824;2023-07-20T10:54:35;28.80;99.90
8214;DHT22;4148;47.974;7.824;2023-07-20T10:57:25;29.30;99.90
8214;DHT22;4148;47.974;7.824;2023-07-20T11:00:09;29.90;99.90
8214;DHT22;4148;47.974;7.824;2023-07-20T11:02:45;30.40;99.90
8214;DHT22;4148;47.974;7.824;2023-07-20T11:05:33;30.40;99.90
8214;DHT22;4148;47.974;7.824;2023-07-20T11:08:04;29.90;99.90
8214;DHT22;4148;47.974;7.824;2023-07-20T11:10:32;29.90;99.90
8214;DHT22;4148;47.974;7.824;2023-07-20T11:13:20;30.30;99.90
8214;DHT22;4148;47.974;7.824;2023-07-20T11:16:03;30.20;99.90
8214;DHT22;4148;47.974;7.824;2023-07-20T11:18:33;30.20;99.90
8214;DHT22;4148;47.974;7.824;2023-07-20T11:21:02;30.10;99.90
8214;DHT22;4148;47.974;7.824;2023-07-20T11:23:31;30.10;99.90
8214;DHT22;4148;47.974;7.824;2023-07-20T11:26:00;30.20;99.90
8214;DHT22;4148;47.974;7.824;2023-07-20T11:28:30;30.20;99.90
8214;DHT22;4148;47.974;7.824;2023-07-20T11:31:00;30.00;99.90
8214;DHT22;4148;47.974;7.824;2023-07-20T11:33:29;29.70;99.90
8214;DHT22;4148;47.974;7.824;2023-07-20T11:35:57;29.90;99.90
8214;DHT22;4148;47.974;7.824;2023-07-20T11:38:24;29.30;99.90
8214;DHT22;4148;47.974;7.824;2023-07-20T11:40:52;29.10;99.90
8214;DHT22;4148;47.974;7.824;2023-07-20T11:43:20;29.30;99.90
8214;DHT22;4148;47.974;7.824;2023-07-20T11:45:50;29.00;99.90
8214;DHT22;4148;47.974;7.824;2023-07-20T11:48:20;29.00;99.90
8214;DHT22;4148;47.974;7.824;2023-07-20T11:50:48;28.90;99.90
8214;DHT22;4148;47.974;7.824;2023-07-20T11:53:16;28.90;99.90
8214;DHT22;4148;47.974;7.824;2023-07-20T11:55:45;29.00;99.90
8214;DHT22;4148;47.974;7.824;2023-07-20T11:58:13;29.00;99.90
8214;DHT22;4148;47.974;7.824;2023-07-20T12:00:44;29.10;99.90
8214;DHT22;4148;47.974;7.824;2023-07-20T12:03:12;28.90;99.90
8214;DHT22;4148;47.974;7.824;2023-07-20T12:05:41;28.80;99.90
8214;DHT22;4148;47.974;7.824;2023-07-20T12:08:27;28.70;99.90
8214;DHT22;4148;47.974;7.824;2023-07-20T12:10:54;28.30;99.90
8214;DHT22;4148;47.974;7.824;2023-07-20T12:13:22;28.20;99.90
8214;DHT22;4148;47.974;7.824;2023-07-20T12:15:53;28.20;99.90
8214;DHT22;4148;47.974;7.824;2023-07-20T12:18:23;27.90;99.90
8214;DHT22;4148;47.974;7.824;2023-07-20T12:20:58;27.60;99.90
8214;DHT22;4148;47.974;7.824;2023-07-20T12:23:27;27.40;99.90
8214;DHT22;4148;47.974;7.824;2023-07-20T12:26:02;27.30;99.90
8214;DHT22;4148;47.974;7.824;2023-07-20T12:28:30;27.00;99.90
8214;DHT22;4148;47.974;7.824;2023-07-20T12:30:59;26.80;99.90
8214;DHT22;4148;47.974;7.824;2023-07-20T12:33:26;26.80;99.90
8214;DHT22;4148;47.974;7.824;2023-07-20T12:35:56;26.80;99.90
8214;DHT22;4148;47.974;7.824;2023-07-20T12:38:25;26.80;99.90
8214;DHT22;4148;47.974;7.824;2023-07-20T12:40:54;26.90;99.90
8214;DHT22;4148;47.974;7.824;2023-07-20T12:43:22;26.60;99.90
8214;DHT22;4148;47.974;7.824;2023-07-20T12:45:50;26.60;99.90
8214;DHT22;4148;47.974;7.824;2023-07-20T12:48:18;26.60;99.90
8214;DHT22;4148;47.974;7.824;2023-07-20T12:50:46;26.70;99.90
8214;DHT22;4148;47.974;7.824;2023-07-20T12:53:16;26.90;99.90
8214;DHT22;4148;47.974;7.824;2023-07-20T12:55:44;26.90;99.90
8214;DHT22;4148;47.974;7.824;2023-07-20T12:58:12;26.90;99.90
8214;DHT22;4148;47.974;7.824;2023-07-20T13:00:40;26.80;99.90
8214;DHT22;4148;47.974;7.824;2023-07-20T13:03:08;26.50;99.90
8214;DHT22;4148;47.974;7.824;2023-07-20T13:05:56;26.40;99.90
8214;DHT22;4148;47.974;7.824;2023-07-20T13:08:29;26.10;99.90
8214;DHT22;4148;47.974;7.824;2023-07-20T13:10:56;26.10;99.90
8214;DHT22;4148;47.974;7.824;2023-07-20T13:13:24;26.10;99.90
8214;DHT22;4148;47.974;7.824;2023-07-20T13:15:52;26.00;99.90
8214;DHT22;4148;47.974;7.824;2023-07-20T13:18:21;26.20;99.90
8214;DHT22;4148;47.974;7.824;2023-07-20T13:20:49;26.30;99.90
8214;DHT22;4148;47.974;7.824;2023-07-20T13:23:17;26.40;99.90
8214;DHT22;4148;47.974;7.824;2023-07-20T13:25:46;26.50;99.90
8214;DHT22;4148;47.974;7.824;2023-07-20T13:28:14;26.50;99.90
8214;DHT22;4148;47.974;7.824;2023-07-20T13:30:41;26.60;99.90
8214;DHT22;4148;47.974;7.824;2023-07-20T13:33:11;26.70;99.90
8214;DHT22;4148;47.974;7.824;2023-07-20T13:35:44;26.70;99.90
8214;DHT22;4148;47.974;7.824;2023-07-20T13:38:15;26.70;99.90
8214;DHT22;4148;47.974;7.824;2023-07-20T13:40:45;26.80;99.90
8214;DHT22;4148;47.974;7.824;2023-07-20T13:43:13;26.80;99.90
8214;DHT22;4148;47.974;7.824;2023-07-20T13:45:41;26.90;99.90
8214;DHT22;4148;47.974;7.824;2023-07-20T13:48:09;26.90;99.90
8214;DHT22;4148;47.974;7.824;2023-07-20T13:50:37;26.80;99.90
8214;DHT22;4148;47.974;7.824;2023-07-20T13:53:07;26.70;99.90
8214;DHT22;4148;47.974;7.824;2023-07-20T13:55:38;26.50;99.90
8214;DHT22;4148;47.974;7.824;2023-07-20T13:58:10;26.50;99.90
8214;DHT22;4148;47.974;7.824;2023-07-20T14:00:39;26.40;99.90
8214;DHT22;4148;47.974;7.824;2023-07-20T14:03:08;26.40;99.90
8214;DHT22;4148;47.974;7.824;2023-07-20T14:05:39;26.40;99.90
8214;DHT22;4148;47.974;7.824;2023-07-20T14:08:09;26.30;99.90
8214;DHT22;4148;47.974;7.824;2023-07-20T14:10:37;26.40;99.90
8214;DHT22;4148;47.974;7.824;2023-07-20T14:13:10;26.30;99.90
8214;DHT22;4148;47.974;7.824;2023-07-20T14:15:38;26.20;99.90
8214;DHT22;4148;47.974;7.824;2023-07-20T14:18:06;26.20;99.90
8214;DHT22;4148;47.974;7.824;2023-07-20T14:20:35;26.20;99.90
8214;DHT22;4148;47.974;7.824;2023-07-20T14:23:05;26.10;99.90
8214;DHT22;4148;47.974;7.824;2023-07-20T14:25:33;26.00;99.90
8214;DHT22;4148;47.974;7.824;2023-07-20T14:28:04;26.00;99.90
8214;DHT22;4148;47.974;7.824;2023-07-20T14:30:33;26.00;99.90
8214;DHT22;4148;47.974;7.824;2023-07-20T14:33:01;26.00;99.90
8214;DHT22;4148;47.974;7.824;2023-07-20T14:35:29;26.00;99.90
8214;DHT22;4148;47.974;7.824;2023-07-20T14:37:57;26.00;99.90
8214;DHT22;4148;47.974;7.824;2023-07-20T14:40:25;25.90;99.90
8214;DHT22;4148;47.974;7.824;2023-07-20T14:42:53;25.80;99.90
8214;DHT22;4148;47.974;7.824;2023-07-20T14:45:22;25.90;99.90
8214;DHT22;4148;47.974;7.824;2023-07-20T14:47:51;25.90;99.90
8214;DHT22;4148;47.974;7.824;2023-07-20T14:50:21;25.90;99.90
8214;DHT22;4148;47.974;7.824;2023-07-20T14:52:49;25.90;99.90
8214;DHT22;4148;47.974;7.824;2023-07-20T14:55:17;25.90;99.90
8214;DHT22;4148;47.974;7.824;2023-07-20T14:57:45;26.00;99.90
8214;DHT22;4148;47.974;7.824;2023-07-20T15:00:15;25.90;99.90
8214;DHT22;4148;47.974;7.824;2023-07-20T15:02:43;25.90;99.90
8214;DHT22;4148;47.974;7.824;2023-07-20T15:05:20;25.90;99.90
8214;DHT22;4148;47.974;7.824;2023-07-20T15:07:48;25.90;99.90
8214;DHT22;4148;47.974;7.824;2023-07-20T15:10:16;25.90;99.90
8214;DHT22;4148;47.974;7.824;2023-07-20T15:12:44;25.90;99.90
8214;DHT22;4148;47.974;7.824;2023-07-20T15:15:13;26.00;99.90
8214;DHT22;4148;47.974;7.824;2023-07-20T15:17:43;26.00;99.90
8214;DHT22;4148;47.974;7.824;2023-07-20T15:20:14;26.10;99.90
8214;DHT22;4148;47.974;7.824;2023-07-20T15:22:43;26.00;99.90
8214;DHT22;4148;47.974;7.824;2023-07-20T15:25:15;26.10;99.90
8214;DHT22;4148;47.974;7.824;2023-07-20T15:27:42;26.10;99.90
8214;DHT22;4148;47.974;7.824;2023-07-20T15:30:16;26.00;99.90
8214;DHT22;4148;47.974;7.824;2023-07-20T15:32:47;26.00;99.90
8214;DHT22;4148;47.974;7.824;2023-07-20T15:35:19;26.00;99.90
8214;DHT22;4148;47.974;7.824;2023-07-20T15:37:47;26.00;99.90
8214;DHT22;4148;47.974;7.824;2023-07-20T15:40:15;26.00;99.90
8214;DHT22;4148;47.974;7.824;2023-07-20T15:42:43;26.00;99.90
8214;DHT22;4148;47.974;7.824;2023-07-20T15:45:19;26.00;99.90
8214;DHT22;4148;47.974;7.824;2023-07-20T15:47:47;25.90;99.90
8214;DHT22;4148;47.974;7.824;2023-07-20T15:50:16;25.80;99.90
8214;DHT22;4148;47.974;7.824;2023-07-20T15:52:48;25.80;99.90
8214;DHT22;4148;47.974;7.824;2023-07-20T15:55:17;25.90;99.90
8214;DHT22;4148;47.974;7.824;2023-07-20T15:57:45;25.90;99.90
8214;DHT22;4148;47.974;7.824;2023-07-20T16:00:13;25.90;99.90
8214;DHT22;4148;47.974;7.824;2023-07-20T16:02:41;26.00;99.90
8214;DHT22;4148;47.974;7.824;2023-07-20T16:05:09;26.00;99.90
8214;DHT22;4148;47.974;7.824;2023-07-20T16:07:40;26.00;99.90
8214;DHT22;4148;47.974;7.824;2023-07-20T16:10:11;25.90;99.90
8214;DHT22;4148;47.974;7.824;2023-07-20T16:12:39;25.90;99.90
8214;DHT22;4148;47.974;7.824;2023-07-20T16:15:09;25.90;99.90
8214;DHT22;4148;47.974;7.824;2023-07-20T16:17:37;26.00;99.90
8214;DHT22;4148;47.974;7.824;2023-07-20T16:20:06;26.00;99.90